createdAt,value
2018-11-26T00:02:29.321Z,8.07
2018-11-26T00:04:58.958Z,9.43
2018-11-26T00:07:28.580Z,9.37
2018-11-26T00:10:36.100Z,8.67
2018-11-26T00:13:06.061Z,8.07
2018-11-26T00:15:35.674Z,6.87
2018-11-26T00:18:06.014Z,8.20
2018-11-26T00:20:35.957Z,6.35
2018-11-26T00:23:06.379Z,6.33
2018-11-26T00:25:36.017Z,6.93
2018-11-26T00:28:05.826Z,6.83
2018-11-26T00:30:54.423Z,6.90
2018-11-26T00:33:24.057Z,6.65
2018-11-26T00:35:53.671Z,5.57
2018-11-26T00:38:23.319Z,5.80
2018-11-26T00:41:12.170Z,5.40
2018-11-26T00:43:41.824Z,6.40
2018-11-26T00:46:11.782Z,5.73
2018-11-26T00:48:42.158Z,6.08
2018-11-26T00:51:11.788Z,5.83
2018-11-26T00:53:41.411Z,5.70
2018-11-26T00:56:11.064Z,5.07
2018-11-26T00:58:40.677Z,6.30
2018-11-26T01:01:10.309Z,4.60
2018-11-26T01:03:40.345Z,5.83
2018-11-26T01:06:10.031Z,5.80
2018-11-26T01:08:40.111Z,5.77
2018-11-26T01:11:10.099Z,4.67
2018-11-26T01:13:58.603Z,6.37
2018-11-26T01:16:28.226Z,5.73
2018-11-26T01:18:58.273Z,5.57
2018-11-26T01:21:46.848Z,5.23
2018-11-26T01:24:16.889Z,5.43
2018-11-26T01:26:47.338Z,4.58
2018-11-26T01:29:36.231Z,5.67
2018-11-26T01:32:06.527Z,4.80
2018-11-26T01:34:36.440Z,5.30
2018-11-26T01:37:06.341Z,4.87
2018-11-26T01:39:35.956Z,6.10
2018-11-26T01:42:05.597Z,5.17
2018-11-26T01:44:35.589Z,4.87
2018-11-26T01:47:05.202Z,5.93
2018-11-26T01:49:34.832Z,4.93
2018-11-26T01:52:04.528Z,5.37
2018-11-26T01:54:34.106Z,5.27
2018-11-26T01:57:03.720Z,5.10
2018-11-26T01:59:33.361Z,5.40
2018-11-26T02:02:02.969Z,3.50
2018-11-26T02:04:32.610Z,4.23
2018-11-26T02:07:02.916Z,3.93
2018-11-26T02:09:32.829Z,4.30
2018-11-26T02:12:02.822Z,4.58
2018-11-26T02:14:32.438Z,3.60
2018-11-26T02:17:02.892Z,3.70
2018-11-26T02:19:33.105Z,3.83
2018-11-26T02:22:03.149Z,3.50
2018-11-26T02:24:51.654Z,3.80
2018-11-26T02:27:21.307Z,2.83
2018-11-26T02:29:51.297Z,3.13
2018-11-26T02:32:40.167Z,2.73
2018-11-26T02:35:09.803Z,1.95
2018-11-26T02:37:40.108Z,2.30
2018-11-26T02:40:12.691Z,2.30
2018-11-26T02:42:42.333Z,1.90
2018-11-26T02:45:12.385Z,2.27
2018-11-26T02:47:42.007Z,2.70
2018-11-26T02:50:11.642Z,2.67
2018-11-26T02:52:41.584Z,1.90
2018-11-26T02:55:11.321Z,1.90
2018-11-26T02:57:40.937Z,1.57
2018-11-26T03:00:14.166Z,2.00
2018-11-26T03:02:43.800Z,1.63
2018-11-26T03:05:14.647Z,2.17
2018-11-26T03:07:44.576Z,2.20
2018-11-26T03:10:14.173Z,2.10
2018-11-26T03:12:43.837Z,2.10
2018-11-26T03:15:14.214Z,1.90
2018-11-26T03:17:44.225Z,1.80
2018-11-26T03:20:14.759Z,1.90
2018-11-26T03:22:44.370Z,1.70
2018-11-26T03:25:14.025Z,2.00
2018-11-26T03:27:44.322Z,1.90
2018-11-26T03:30:32.906Z,2.00
2018-11-26T03:33:02.515Z,1.67
2018-11-26T03:35:32.913Z,1.90
2018-11-26T03:38:02.543Z,3.07
2018-11-26T03:40:32.208Z,3.97
2018-11-26T03:43:01.837Z,3.40
2018-11-26T03:45:31.467Z,4.47
2018-11-26T03:48:20.813Z,4.72
2018-11-26T03:51:01.724Z,5.40
2018-11-26T03:53:31.692Z,5.27
2018-11-26T03:56:01.332Z,5.30
2018-11-26T03:58:30.992Z,6.15
2018-11-26T04:01:00.615Z,7.73
2018-11-26T04:03:30.986Z,5.87
2018-11-26T04:06:00.998Z,5.97
2018-11-26T04:08:30.634Z,6.47
2018-11-26T04:11:00.238Z,4.90
2018-11-26T04:13:30.247Z,3.60
2018-11-26T04:16:00.162Z,3.47
2018-11-26T04:18:29.803Z,3.63
2018-11-26T04:21:00.289Z,4.23
2018-11-26T04:23:29.932Z,3.00
2018-11-26T04:25:59.547Z,3.87
2018-11-26T04:31:04.467Z,6.70
2018-11-26T04:33:34.531Z,4.20
2018-11-26T04:36:04.170Z,3.63
2018-11-26T04:38:33.803Z,4.23
2018-11-26T04:41:03.834Z,3.53
2018-11-26T04:43:33.843Z,3.07
2018-11-26T04:46:03.676Z,2.10
2018-11-26T04:48:33.305Z,1.90
2018-11-26T04:51:03.315Z,2.17
2018-11-26T04:53:32.941Z,1.13
2018-11-26T04:56:21.509Z,1.77
2018-11-26T04:58:51.119Z,1.90
2018-11-26T05:01:20.747Z,1.17
2018-11-26T05:03:50.375Z,1.77
2018-11-26T05:06:20.042Z,1.07
2018-11-26T05:08:50.350Z,1.30
2018-11-26T05:11:19.950Z,1.30
2018-11-26T05:13:49.588Z,1.73
2018-11-26T05:16:19.204Z,1.60
2018-11-26T05:18:49.623Z,1.03
2018-11-26T05:21:19.245Z,1.40
2018-11-26T05:23:48.886Z,1.33
2018-11-26T05:26:18.945Z,1.13
2018-11-26T05:28:48.584Z,1.20
2018-11-26T05:31:18.197Z,1.13
2018-11-26T05:33:47.851Z,1.90
2018-11-26T05:36:17.479Z,1.60
2018-11-26T05:38:47.099Z,1.80
2018-11-26T05:41:16.747Z,2.60
2018-11-26T05:43:46.369Z,2.00
2018-11-26T05:46:16.008Z,1.87
2018-11-26T05:48:45.636Z,1.60
2018-11-26T05:51:15.277Z,1.60
2018-11-26T05:53:44.882Z,1.77
2018-11-26T05:56:14.580Z,1.70
2018-11-26T05:58:45.327Z,1.20
2018-11-26T06:01:33.758Z,1.20
2018-11-26T06:04:04.596Z,1.53
2018-11-26T06:06:53.168Z,1.77
2018-11-26T06:09:23.120Z,1.57
2018-11-26T06:11:53.145Z,1.37
2018-11-26T06:14:22.759Z,2.05
2018-11-26T06:16:53.802Z,1.53
2018-11-26T06:19:22.360Z,2.00
2018-11-26T06:22:10.574Z,1.83
2018-11-26T06:24:40.225Z,1.43
2018-11-26T06:27:10.239Z,2.00
2018-11-26T06:29:40.249Z,1.83
2018-11-26T06:32:10.245Z,1.93
2018-11-26T06:34:42.508Z,2.30
2018-11-26T06:37:09.488Z,2.13
2018-11-26T06:39:39.408Z,1.90
2018-11-26T06:42:09.034Z,2.13
2018-11-26T06:44:38.646Z,2.57
2018-11-26T06:47:08.288Z,2.27
2018-11-26T06:49:37.893Z,2.73
2018-11-26T06:52:07.904Z,2.10
2018-11-26T06:54:37.987Z,2.47
2018-11-26T06:57:08.202Z,2.10
2018-11-26T06:59:37.805Z,2.80
2018-11-26T07:02:07.749Z,2.00
2018-11-26T07:04:37.420Z,2.00
2018-11-26T07:07:07.783Z,3.80
2018-11-26T07:09:37.416Z,6.47
2018-11-26T07:12:07.725Z,3.40
2018-11-26T07:14:37.376Z,3.20
2018-11-26T07:17:07.281Z,3.23
2018-11-26T07:19:40.852Z,2.37
2018-11-26T07:22:11.195Z,2.90
2018-11-26T07:24:41.200Z,2.93
2018-11-26T07:27:10.820Z,2.58
2018-11-26T07:29:40.449Z,3.40
2018-11-26T07:32:10.064Z,2.90
2018-11-26T07:34:39.662Z,3.13
2018-11-26T07:37:09.562Z,2.70
2018-11-26T07:39:39.568Z,2.70
2018-11-26T07:42:09.904Z,2.40
2018-11-26T07:44:39.825Z,2.50
2018-11-26T07:47:09.808Z,2.93
2018-11-26T07:49:39.453Z,2.80
2018-11-26T07:52:09.474Z,3.00
2018-11-26T07:54:39.081Z,2.33
2018-11-26T07:57:09.426Z,3.73
2018-11-26T07:59:39.015Z,3.27
2018-11-26T08:02:09.030Z,4.30
2018-11-26T08:04:38.963Z,2.60
2018-11-26T08:07:08.597Z,3.80
2018-11-26T08:09:38.343Z,2.97
2018-11-26T08:12:08.656Z,3.15
2018-11-26T08:14:38.284Z,2.90
2018-11-26T08:17:08.332Z,2.43
2018-11-26T08:19:38.677Z,3.22
2018-11-26T08:22:08.300Z,3.20
2018-11-26T08:24:37.915Z,2.47
2018-11-26T08:27:26.435Z,3.90
2018-11-26T08:29:56.101Z,3.30
2018-11-26T08:32:25.702Z,3.50
2018-11-26T08:34:55.670Z,3.63
2018-11-26T08:37:44.188Z,4.07
2018-11-26T08:40:17.033Z,3.22
2018-11-26T08:43:05.636Z,2.90
2018-11-26T08:45:54.367Z,2.73
2018-11-26T08:48:42.944Z,3.45
2018-11-26T08:51:12.597Z,3.50
2018-11-26T08:53:42.212Z,3.08
2018-11-26T08:56:12.657Z,3.15
2018-11-26T08:58:42.283Z,3.70
2018-11-26T09:01:30.541Z,3.27
2018-11-26T09:09:35.128Z,3.33
2018-11-26T09:12:05.111Z,3.20
2018-11-26T09:14:35.728Z,2.90
2018-11-26T09:17:06.069Z,3.73
2018-11-26T09:19:36.004Z,3.07
2018-11-26T09:22:06.397Z,3.20
2018-11-26T09:24:36.422Z,3.63
2018-11-26T09:27:09.896Z,3.30
2018-11-26T09:29:55.574Z,3.50
2018-11-26T09:32:25.617Z,3.10
2018-11-26T09:34:55.558Z,3.67
2018-11-26T09:37:25.154Z,2.37
2018-11-26T09:39:54.786Z,4.00
2018-11-26T09:42:24.792Z,3.00
2018-11-26T09:44:55.185Z,2.40
2018-11-26T09:47:24.839Z,3.57
2018-11-26T09:49:54.948Z,2.93
2018-11-26T09:52:24.958Z,3.03
2018-11-26T09:54:54.552Z,3.35
2018-11-26T09:57:24.190Z,3.40
2018-11-26T09:59:54.210Z,3.20
2018-11-26T10:02:24.195Z,3.60
2018-11-26T10:04:53.872Z,4.07
2018-11-26T10:07:23.488Z,3.03
2018-11-26T10:09:53.689Z,4.07
2018-11-26T10:12:23.317Z,5.67
2018-11-26T10:14:52.917Z,5.83
2018-11-26T10:17:41.480Z,5.28
2018-11-26T10:20:12.358Z,5.07
2018-11-26T10:22:42.414Z,4.00
2018-11-26T10:25:31.290Z,4.50
2018-11-26T10:28:01.299Z,4.27
2018-11-26T10:30:30.936Z,3.73
2018-11-26T10:33:00.583Z,5.30
2018-11-26T10:35:30.534Z,7.97
2018-11-26T10:38:00.580Z,5.57
2018-11-26T10:40:31.322Z,4.97
2018-11-26T10:43:00.924Z,4.93
2018-11-26T10:45:49.664Z,5.10
2018-11-26T10:48:19.296Z,5.33
2018-11-26T10:50:48.903Z,5.50
2018-11-26T10:53:18.527Z,7.70
2018-11-26T10:55:48.147Z,5.70
2018-11-26T10:58:18.123Z,6.90
2018-11-26T11:01:06.386Z,4.83
2018-11-26T11:03:36.013Z,6.10
2018-11-26T11:06:06.431Z,6.05
2018-11-26T11:08:36.348Z,5.97
2018-11-26T11:11:06.325Z,4.97
2018-11-26T11:13:35.981Z,5.35
2018-11-26T11:16:05.574Z,6.75
2018-11-26T11:18:35.554Z,5.10
2018-11-26T11:21:05.854Z,5.03
2018-11-26T11:23:35.635Z,5.90
2018-11-26T11:26:05.980Z,5.23
2018-11-26T11:28:35.600Z,4.37
2018-11-26T11:31:06.094Z,4.90
2018-11-26T11:33:36.042Z,4.40
2018-11-26T11:36:05.960Z,5.17
2018-11-26T11:38:35.755Z,3.83
2018-11-26T11:41:05.362Z,5.10
2018-11-26T11:43:35.300Z,4.28
2018-11-26T11:46:04.914Z,4.55
2018-11-26T11:48:54.012Z,5.63
2018-11-26T11:51:23.643Z,4.47
2018-11-26T11:53:53.281Z,5.13
2018-11-26T11:56:23.281Z,6.03
2018-11-26T11:58:53.244Z,5.30
2018-11-26T12:01:23.568Z,6.37
2018-11-26T12:03:53.567Z,7.53
2018-11-26T12:06:23.604Z,7.13
2018-11-26T12:08:53.557Z,5.23
2018-11-26T12:11:23.181Z,4.97
2018-11-26T12:13:53.115Z,4.63
2018-11-26T12:16:23.161Z,4.20
2018-11-26T12:18:52.816Z,3.80
2018-11-26T12:21:22.480Z,4.40
2018-11-26T12:24:11.037Z,4.43
2018-11-26T12:26:41.080Z,4.42
2018-11-26T12:29:10.710Z,5.60
2018-11-26T12:31:41.310Z,6.03
2018-11-26T12:34:10.941Z,4.93
2018-11-26T12:36:40.561Z,3.50
2018-11-26T12:39:10.998Z,3.67
2018-11-26T12:41:40.599Z,3.20
2018-11-26T12:44:10.222Z,4.57
2018-11-26T12:46:39.849Z,3.95
2018-11-26T12:49:09.474Z,4.17
2018-11-26T12:51:39.840Z,3.10
2018-11-26T12:54:09.464Z,3.53
2018-11-26T12:56:39.783Z,3.80
2018-11-26T12:59:09.391Z,8.13
2018-11-26T13:01:39.044Z,8.80
2018-11-26T13:04:09.124Z,4.37
2018-11-26T13:06:38.749Z,4.83
2018-11-26T13:09:09.399Z,4.15
2018-11-26T13:11:39.080Z,4.53
2018-11-26T13:14:08.689Z,4.67
2018-11-26T13:16:38.334Z,3.77
2018-11-26T13:19:07.995Z,3.70
2018-11-26T13:21:38.001Z,5.13
2018-11-26T13:24:07.749Z,5.00
2018-11-26T13:26:37.811Z,4.60
2018-11-26T13:29:07.994Z,6.10
2018-11-26T13:31:37.912Z,7.40
2018-11-26T13:34:08.447Z,4.73
2018-11-26T13:36:38.445Z,7.00
2018-11-26T13:39:10.010Z,10.50
2018-11-26T13:41:39.933Z,6.80
2018-11-26T13:44:09.870Z,4.85
2018-11-26T13:46:39.516Z,4.63
2018-11-26T13:49:09.995Z,4.83
2018-11-26T13:51:39.612Z,5.67
2018-11-26T13:54:28.166Z,5.20
2018-11-26T13:56:58.121Z,6.00
2018-11-26T13:59:27.722Z,6.27
2018-11-26T14:01:57.287Z,6.30
2018-11-26T14:04:27.004Z,6.78
2018-11-26T14:06:56.640Z,6.63
2018-11-26T14:09:26.236Z,7.10
2018-11-26T14:11:55.838Z,5.13
2018-11-26T14:14:44.050Z,4.30
2018-11-26T14:17:13.653Z,4.08
2018-11-26T14:19:43.228Z,3.80
2018-11-26T14:22:12.934Z,4.57
2018-11-26T14:24:42.916Z,4.47
2018-11-26T14:27:13.274Z,5.57
2018-11-26T14:29:42.874Z,5.20
2018-11-26T14:32:12.816Z,4.60
2018-11-26T14:34:42.451Z,5.43
2018-11-26T14:37:12.083Z,5.23
2018-11-26T14:39:41.728Z,6.07
2018-11-26T14:42:31.333Z,5.40
2018-11-26T14:45:01.388Z,4.77
2018-11-26T14:47:31.000Z,6.22
2018-11-26T14:50:00.651Z,5.33
2018-11-26T14:52:30.582Z,5.42
2018-11-26T14:55:00.590Z,6.10
2018-11-26T14:57:30.767Z,5.73
2018-11-26T14:59:59.880Z,6.00
2018-11-26T15:02:29.488Z,7.33
2018-11-26T15:04:59.546Z,7.50
2018-11-26T15:07:48.147Z,6.67
2018-11-26T15:10:36.732Z,6.30
2018-11-26T15:13:07.693Z,6.40
2018-11-26T15:15:37.311Z,6.17
2018-11-26T15:18:07.285Z,6.53
2018-11-26T15:20:44.196Z,6.27
2018-11-26T15:23:13.843Z,6.50
2018-11-26T15:25:43.456Z,6.77
2018-11-26T15:28:14.531Z,6.90
2018-11-26T15:30:44.506Z,7.10
2018-11-26T15:33:33.098Z,8.37
2018-11-26T15:36:03.123Z,8.97
2018-11-26T15:38:32.753Z,7.90
2018-11-26T15:41:02.709Z,9.03
2018-11-26T15:43:32.341Z,7.97
2018-11-26T15:46:02.398Z,9.13
2018-11-26T15:48:32.768Z,12.95
2018-11-26T15:51:02.408Z,11.00
2018-11-26T15:53:32.033Z,9.48
2018-11-26T15:56:02.075Z,8.90
2018-11-26T15:58:31.707Z,9.60
2018-11-26T16:01:01.345Z,9.70
2018-11-26T16:03:31.285Z,10.00
2018-11-26T16:06:00.964Z,10.47
2018-11-26T16:08:30.963Z,10.00
2018-11-26T16:11:00.616Z,10.03
2018-11-26T16:13:30.595Z,11.90
2018-11-26T16:16:00.625Z,10.23
2018-11-26T16:18:30.346Z,9.40
2018-11-26T16:20:59.978Z,10.90
2018-11-26T16:23:29.616Z,10.90
2018-11-26T16:25:59.241Z,10.00
2018-11-26T16:28:28.871Z,10.20
2018-11-26T16:30:58.816Z,14.03
2018-11-26T16:33:28.459Z,10.90
2018-11-26T16:35:58.492Z,10.60
2018-11-26T16:38:28.604Z,11.57
2018-11-26T16:40:58.216Z,10.60
2018-11-26T16:43:27.851Z,12.80
2018-11-26T16:45:57.512Z,11.47
2018-11-26T16:48:27.156Z,10.33
2018-11-26T16:50:56.778Z,10.70
2018-11-26T16:53:26.410Z,11.03
2018-11-26T16:55:56.055Z,12.63
2018-11-26T16:58:44.973Z,12.20
2018-11-26T17:01:14.609Z,11.40
2018-11-26T17:03:44.620Z,12.30
2018-11-26T17:06:14.267Z,10.73
2018-11-26T17:08:43.893Z,11.20
2018-11-26T17:11:33.128Z,12.33
2018-11-26T17:14:02.752Z,12.83
2018-11-26T17:16:32.755Z,11.38
2018-11-26T17:19:02.384Z,11.73
2018-11-26T17:21:32.760Z,12.57
2018-11-26T17:24:02.799Z,12.37
2018-11-26T17:26:32.421Z,11.80
2018-11-26T17:29:02.058Z,13.23
2018-11-26T17:31:31.696Z,16.55
2018-11-26T17:34:01.328Z,11.10
2018-11-26T17:36:31.996Z,10.65
2018-11-26T17:39:01.646Z,13.60
2018-11-26T17:41:32.489Z,12.37
2018-11-26T17:44:02.877Z,12.33
2018-11-26T17:46:32.498Z,14.80
2018-11-26T17:49:02.505Z,13.53
2018-11-26T17:51:32.121Z,10.10
2018-11-26T17:54:02.541Z,15.20
2018-11-26T17:56:32.152Z,14.07
2018-11-26T17:59:02.584Z,12.30
2018-11-26T18:01:43.872Z,11.87
2018-11-26T18:04:13.543Z,13.63
2018-11-26T18:06:47.481Z,14.57
2018-11-26T18:09:13.470Z,13.47
2018-11-26T18:11:43.095Z,11.70
2018-11-26T18:14:12.750Z,13.50
2018-11-26T18:16:42.393Z,12.70
2018-11-26T18:19:12.373Z,12.90
2018-11-26T18:21:42.003Z,12.60
2018-11-26T18:24:12.040Z,13.40
2018-11-26T18:26:41.702Z,13.37
2018-11-26T18:29:11.465Z,13.83
2018-11-26T18:31:43.288Z,13.67
2018-11-26T18:34:13.309Z,14.90
2018-11-26T18:36:43.450Z,13.53
2018-11-26T18:39:13.115Z,14.30
2018-11-26T18:41:42.757Z,14.57
2018-11-26T18:44:12.375Z,13.93
2018-11-26T18:46:42.013Z,15.63
2018-11-26T18:49:11.653Z,22.00
2018-11-26T18:51:41.286Z,15.87
2018-11-26T18:54:29.803Z,14.63
2018-11-26T18:56:59.826Z,14.57
2018-11-26T18:59:30.322Z,14.90
2018-11-26T19:02:00.330Z,14.50
2018-11-26T19:04:29.966Z,14.87
2018-11-26T19:07:00.274Z,14.55
2018-11-26T19:09:29.932Z,14.80
2018-11-26T19:12:04.004Z,18.20
2018-11-26T19:14:29.257Z,14.33
2018-11-26T19:16:59.418Z,16.90
2018-11-26T19:19:29.437Z,13.80
2018-11-26T19:21:59.462Z,13.50
2018-11-26T19:24:30.150Z,13.97
2018-11-26T19:27:00.449Z,15.83
2018-11-26T19:29:30.054Z,14.57
2018-11-26T19:32:00.471Z,14.47
2018-11-26T19:34:30.477Z,13.90
2018-11-26T19:37:00.468Z,14.20
2018-11-26T19:39:30.091Z,15.07
2018-11-26T19:41:59.743Z,14.87
2018-11-26T19:44:29.439Z,14.40
2018-11-26T19:46:59.065Z,15.10
2018-11-26T19:49:28.726Z,15.27
2018-11-26T19:51:58.682Z,15.58
2018-11-26T19:54:28.686Z,13.70
2018-11-26T19:56:58.337Z,16.50
2018-11-26T19:59:27.959Z,15.53
2018-11-26T20:01:57.990Z,17.57
2018-11-26T20:04:51.731Z,15.27
2018-11-26T20:07:21.729Z,16.17
2018-11-26T20:09:51.773Z,15.32
2018-11-26T20:12:21.437Z,14.87
2018-11-26T20:14:51.804Z,15.57
2018-11-26T20:17:21.819Z,15.60
2018-11-26T20:20:10.696Z,14.40
2018-11-26T20:22:40.607Z,15.93
2018-11-26T20:25:30.131Z,14.83
2018-11-26T20:28:19.075Z,17.57
2018-11-26T20:30:48.712Z,16.30
2018-11-26T20:33:18.660Z,15.37
2018-11-26T20:35:48.692Z,14.45
2018-11-26T20:38:18.432Z,15.00
2018-11-26T20:40:48.060Z,16.77
2018-11-26T20:43:18.002Z,17.07
2018-11-26T20:45:51.840Z,15.30
2018-11-26T20:48:21.487Z,18.43
2018-11-26T20:51:11.033Z,16.75
2018-11-26T20:53:41.024Z,18.03
2018-11-26T20:56:30.710Z,16.80
2018-11-26T20:59:00.335Z,19.57
2018-11-26T21:01:30.009Z,16.50
2018-11-26T21:03:59.660Z,17.90
2018-11-26T21:06:29.346Z,16.07
2018-11-26T21:08:59.414Z,18.07
2018-11-26T21:11:29.095Z,18.07
2018-11-26T21:13:59.048Z,16.67
2018-11-26T21:16:28.736Z,16.20
2018-11-26T21:18:58.391Z,17.17
2018-11-26T21:21:47.109Z,18.63
2018-11-26T21:24:17.120Z,16.60
2018-11-26T21:26:47.160Z,18.90
2018-11-26T21:29:16.818Z,21.03
2018-11-26T21:31:46.939Z,18.27
2018-11-26T21:34:35.158Z,16.10
2018-11-26T21:37:05.171Z,15.23
2018-11-26T21:39:34.834Z,16.50
2018-11-26T21:42:04.507Z,16.07
2018-11-26T21:44:34.536Z,17.83
2018-11-26T21:47:04.358Z,16.53
2018-11-26T21:49:34.340Z,15.63
2018-11-26T21:52:04.024Z,16.27
2018-11-26T21:54:33.663Z,16.80
2018-11-26T21:57:03.340Z,16.40
2018-11-26T21:59:33.383Z,15.30
2018-11-26T22:02:03.413Z,14.70
2018-11-26T22:04:33.629Z,14.70
2018-11-26T22:07:03.675Z,16.20
2018-11-26T22:09:34.294Z,16.53
2018-11-26T22:12:04.328Z,16.30
2018-11-26T22:14:34.045Z,15.90
2018-11-26T22:17:03.980Z,15.00
2018-11-26T22:19:33.666Z,15.73
2018-11-26T22:22:03.361Z,16.13
2018-11-26T22:24:33.477Z,15.27
2018-11-26T22:27:22.423Z,16.10
2018-11-26T22:29:52.479Z,16.00
2018-11-26T22:32:22.137Z,16.03
2018-11-26T22:34:52.221Z,15.47
2018-11-26T22:37:21.875Z,14.63
2018-11-26T22:39:51.856Z,15.20
2018-11-26T22:42:21.500Z,16.20
2018-11-26T22:44:51.560Z,15.70
2018-11-26T22:47:21.598Z,16.25
2018-11-26T22:49:51.227Z,14.93
2018-11-26T22:52:20.852Z,16.47
2018-11-26T22:54:50.495Z,14.40
2018-11-26T22:57:20.137Z,16.10
2018-11-26T22:59:50.062Z,15.57
2018-11-26T23:02:20.037Z,16.10
2018-11-26T23:04:49.646Z,15.93
2018-11-26T23:07:19.268Z,16.27
2018-11-26T23:09:48.898Z,15.30
2018-11-26T23:12:18.520Z,16.33
2018-11-26T23:15:08.985Z,16.10
2018-11-26T23:17:38.999Z,15.50
2018-11-26T23:20:10.799Z,14.37
2018-11-26T23:22:40.597Z,13.13
2018-11-26T23:25:29.886Z,14.10
2018-11-26T23:27:59.534Z,14.57
2018-11-26T23:30:30.324Z,14.47
2018-11-26T23:33:04.465Z,13.73
2018-11-26T23:35:34.091Z,15.37
2018-11-26T23:38:03.722Z,15.07
2018-11-26T23:40:34.179Z,14.43
2018-11-26T23:43:03.414Z,15.13
2018-11-26T23:45:33.362Z,13.90
2018-11-26T23:48:03.754Z,13.00
2018-11-26T23:50:33.378Z,13.40
2018-11-26T23:53:03.449Z,14.17
2018-11-26T23:55:33.452Z,13.33
2018-11-26T23:58:03.119Z,14.85
